Time;durP1;ratioP1;P1;durP2;ratioP2;P2;SDS_P1;SDS_P2;PMS_P1;PMS_P2;Temp;Humidity;BMP_temperature;BMP_pressure;BME280_temperature;BME280_humidity;BME280_pressure;Samples;Min_cycle;Max_cycle;Signal;HPM_P1;HPM_P2
2022/08/25 00:01:17;;;;;;;60.47;4.77;;;;;;;;;;5073435;28;21005;-68
2022/08/25 00:03:44;;;;;;;60.80;4.37;;;;;;;;;;5073614;28;20454;-68
2022/08/25 00:06:12;;;;;;;59.50;3.80;;;;;;;;;;5073564;28;20455;-68
2022/08/25 00:08:39;;;;;;;60.87;4.40;;;;;;;;;;5073216;28;20518;-68
2022/08/25 00:11:07;;;;;;;60.77;4.63;;;;;;;;;;5073413;28;20816;-67
2022/08/25 00:13:34;;;;;;;60.30;4.20;;;;;;;;;;5073159;28;20474;-67
2022/08/25 00:16:01;;;;;;;60.70;4.57;;;;;;;;;;5073151;28;20454;-68
2022/08/25 00:18:30;;;;;;;58.90;3.57;;;;;;;;;;5073013;28;20822;-65
2022/08/25 00:20:57;;;;;;;58.97;3.50;;;;;;;;;;5072998;28;20451;-67
2022/08/25 00:23:24;;;;;;;60.27;3.70;;;;;;;;;;5072983;28;20509;-67
2022/08/25 00:25:51;;;;;;;60.17;4.17;;;;;;;;;;5072767;28;20485;-67
2022/08/25 00:28:19;;;;;;;59.50;3.80;;;;;;;;;;5073101;28;20450;-67
2022/08/25 00:30:47;;;;;;;60.40;4.93;;;;;;;;;;5072944;28;20459;-68
2022/08/25 00:33:14;;;;;;;60.07;4.17;;;;;;;;;;5072765;28;20485;-68
2022/08/25 00:35:43;;;;;;;59.77;4.07;;;;;;;;;;5072824;28;20448;-69
2022/08/25 00:38:11;;;;;;;60.90;4.10;;;;;;;;;;5072634;28;20962;-67
2022/08/25 00:40:39;;;;;;;59.47;3.83;;;;;;;;;;5072873;28;20799;-68
2022/08/25 00:43:07;;;;;;;60.10;4.30;;;;;;;;;;5072594;28;20484;-68
2022/08/25 00:45:34;;;;;;;60.73;4.27;;;;;;;;;;5072684;28;20518;-68
2022/08/25 00:48:01;;;;;;;59.17;3.30;;;;;;;;;;5072557;28;20450;-67
2022/08/25 00:50:29;;;;;;;59.60;3.90;;;;;;;;;;5072483;28;20464;-67
2022/08/25 00:53:00;;;;;;;59.70;3.97;;;;;;;;;;5072365;28;20477;-67
2022/08/25 00:55:29;;;;;;;66.10;4.03;;;;;;;;;;5071809;28;20931;-67
2022/08/25 00:57:57;;;;;;;59.33;3.67;;;;;;;;;;5072473;28;20459;-67
2022/08/25 01:00:26;;;;;;;61.20;4.20;;;;;;;;;;5072352;28;20490;-67
2022/08/25 01:02:55;;;;;;;60.63;4.43;;;;;;;;;;5072218;28;20993;-67
2022/08/25 01:05:23;;;;;;;60.07;4.27;;;;;;;;;;5072154;28;20527;-68
2022/08/25 01:07:50;;;;;;;59.70;4.00;;;;;;;;;;5072756;28;20452;-68
2022/08/25 01:10:19;;;;;;;60.20;4.07;;;;;;;;;;5071924;28;20453;-68
2022/08/25 01:12:47;;;;;;;59.40;4.23;;;;;;;;;;5072274;28;20466;-67
2022/08/25 01:15:16;;;;;;;59.70;4.00;;;;;;;;;;5072026;28;20449;-67
2022/08/25 01:17:47;;;;;;;61.00;4.90;;;;;;;;;;5071920;28;20976;-67
2022/08/25 01:20:14;;;;;;;61.60;5.10;;;;;;;;;;5071756;28;20443;-67
2022/08/25 01:22:42;;;;;;;61.97;4.70;;;;;;;;;;5072027;28;20466;-68
2022/08/25 01:25:28;;;;;;;59.70;3.93;;;;;;;;;;5071946;28;20518;-67
2022/08/25 01:27:55;;;;;;;60.33;4.30;;;;;;;;;;5071945;28;20454;-65
2022/08/25 01:30:22;;;;;;;59.30;3.77;;;;;;;;;;5071621;28;20445;-67
2022/08/25 01:32:49;;;;;;;61.07;5.00;;;;;;;;;;5071895;28;20482;-68
2022/08/25 01:35:17;;;;;;;60.67;4.20;;;;;;;;;;5072145;28;20540;-67
2022/08/25 01:37:46;;;;;;;60.73;4.90;;;;;;;;;;5071805;28;21057;-67
2022/08/25 01:40:13;;;;;;;62.80;4.70;;;;;;;;;;5071568;28;20457;-67
2022/08/25 01:42:47;;;;;;;59.93;4.23;;;;;;;;;;5069959;28;20776;-68
2022/08/25 01:45:14;;;;;;;59.50;4.00;;;;;;;;;;5071684;28;21003;-68
2022/08/25 01:47:41;;;;;;;59.40;3.90;;;;;;;;;;5071729;28;20457;-68
2022/08/25 01:50:09;;;;;;;60.47;4.30;;;;;;;;;;5071538;28;20541;-67
2022/08/25 01:52:38;;;;;;;59.87;4.67;;;;;;;;;;5071679;28;20468;-68
2022/08/25 01:55:08;;;;;;;59.60;3.60;;;;;;;;;;5071977;28;20528;-68
2022/08/25 01:57:35;;;;;;;60.20;4.50;;;;;;;;;;5071801;28;20533;-67
2022/08/25 02:00:02;;;;;;;61.30;4.50;;;;;;;;;;5071392;28;20893;-68
2022/08/25 02:02:29;;;;;;;60.23;5.00;;;;;;;;;;5071969;28;20473;-67
2022/08/25 02:04:56;;;;;;;60.20;4.90;;;;;;;;;;5071849;28;20821;-68
2022/08/25 02:07:23;;;;;;;60.47;4.20;;;;;;;;;;5074705;28;20446;-69
2022/08/25 02:09:50;;;;;;;60.07;4.40;;;;;;;;;;5075578;28;20526;-68
2022/08/25 02:12:19;;;;;;;61.50;4.00;;;;;;;;;;5075741;28;20901;-67
2022/08/25 02:14:47;;;;;;;62.60;5.30;;;;;;;;;;5075715;28;20454;-68
2022/08/25 02:17:14;;;;;;;60.57;4.37;;;;;;;;;;5075537;28;20445;-68
2022/08/25 02:19:41;;;;;;;59.67;3.50;;;;;;;;;;5075133;28;20451;-68
2022/08/25 02:22:08;;;;;;;59.60;4.00;;;;;;;;;;5075800;28;21045;-68
2022/08/25 02:24:35;;;;;;;60.27;4.17;;;;;;;;;;5075313;28;20441;-67
2022/08/25 02:27:02;;;;;;;60.17;4.17;;;;;;;;;;5075441;28;20551;-68
2022/08/25 02:29:31;;;;;;;59.30;4.37;;;;;;;;;;5075145;28;20531;-68
2022/08/25 02:31:58;;;;;;;60.53;4.20;;;;;;;;;;5075065;28;20513;-68
2022/08/25 02:34:26;;;;;;;60.20;3.90;;;;;;;;;;5075156;28;20458;-65
2022/08/25 02:36:53;;;;;;;62.97;4.53;;;;;;;;;;5075423;28;20454;-67
2022/08/25 02:39:20;;;;;;;59.77;3.83;;;;;;;;;;5074915;28;20449;-68
2022/08/25 02:41:47;;;;;;;59.90;4.50;;;;;;;;;;5075034;28;20471;-67
2022/08/25 02:44:14;;;;;;;60.00;4.10;;;;;;;;;;5075183;28;20534;-67
2022/08/25 02:46:43;;;;;;;61.80;4.17;;;;;;;;;;5074818;28;20488;-67
2022/08/25 02:49:10;;;;;;;60.07;4.57;;;;;;;;;;5074820;28;20473;-67
2022/08/25 02:51:37;;;;;;;61.20;5.13;;;;;;;;;;5074730;28;20447;-68
2022/08/25 02:54:06;;;;;;;66.40;4.27;;;;;;;;;;5075057;28;20449;-68
2022/08/25 02:56:33;;;;;;;66.70;4.70;;;;;;;;;;5074942;28;20441;-67
2022/08/25 02:59:01;;;;;;;61.13;4.37;;;;;;;;;;5074592;28;20865;-68
2022/08/25 03:01:28;;;;;;;59.73;4.30;;;;;;;;;;5074580;28;20449;-65
2022/08/25 03:03:57;;;;;;;60.10;4.20;;;;;;;;;;5074971;28;20526;-68
2022/08/25 03:06:24;;;;;;;60.37;4.30;;;;;;;;;;5074667;28;20479;-67
2022/08/25 03:08:51;;;;;;;59.70;4.20;;;;;;;;;;5074494;28;20958;-67
2022/08/25 03:11:19;;;;;;;60.00;4.67;;;;;;;;;;5074746;28;20451;-65
2022/08/25 03:13:48;;;;;;;59.83;4.60;;;;;;;;;;5074445;28;20947;-66
2022/08/25 03:16:15;;;;;;;59.57;4.00;;;;;;;;;;5074356;28;20814;-66
2022/08/25 03:18:43;;;;;;;59.10;3.57;;;;;;;;;;5073498;28;20445;-67
2022/08/25 03:21:12;;;;;;;60.20;3.93;;;;;;;;;;5074313;28;20446;-68
2022/08/25 03:23:40;;;;;;;60.03;3.60;;;;;;;;;;5074228;28;20501;-67
2022/08/25 03:28:54;;;;;;;59.87;4.53;;;;;;;;;;5073885;28;20431;-68
2022/08/25 03:31:21;;;;;;;60.70;4.03;;;;;;;;;;5074325;28;20450;-67
2022/08/25 03:33:48;;;;;;;60.80;5.10;;;;;;;;;;5074026;28;20833;-68
2022/08/25 03:36:17;;;;;;;60.80;4.63;;;;;;;;;;5074334;28;20451;-67
2022/08/25 03:38:44;;;;;;;61.57;4.43;;;;;;;;;;5073765;28;20444;-68
2022/08/25 03:41:15;;;;;;;63.40;5.70;;;;;;;;;;5073900;28;20448;-65
2022/08/25 03:43:43;;;;;;;61.03;4.60;;;;;;;;;;5074119;28;20482;-66
2022/08/25 03:46:16;;;;;;;61.30;5.00;;;;;;;;;;5074069;28;20485;-65
2022/08/25 03:48:43;;;;;;;61.47;5.00;;;;;;;;;;5073647;28;20453;-65
2022/08/25 03:51:10;;;;;;;60.23;4.83;;;;;;;;;;5073938;28;20444;-66
2022/08/25 03:53:39;;;;;;;60.77;5.03;;;;;;;;;;5073470;28;21004;-65
2022/08/25 03:56:06;;;;;;;60.23;4.47;;;;;;;;;;5073884;28;20444;-65
2022/08/25 03:58:33;;;;;;;59.87;4.30;;;;;;;;;;5073585;28;20526;-65
2022/08/25 04:01:01;;;;;;;60.07;4.53;;;;;;;;;;5073887;28;20467;-66
2022/08/25 04:03:28;;;;;;;59.80;4.77;;;;;;;;;;5073428;28;20474;-67
2022/08/25 04:05:55;;;;;;;59.70;4.40;;;;;;;;;;5073343;28;20485;-68
2022/08/25 04:08:22;;;;;;;60.37;4.30;;;;;;;;;;5073312;28;20450;-67
2022/08/25 04:10:50;;;;;;;60.37;4.50;;;;;;;;;;5073220;28;20447;-68
2022/08/25 04:13:18;;;;;;;60.90;4.80;;;;;;;;;;5073342;28;20474;-67
2022/08/25 04:15:45;;;;;;;60.77;4.77;;;;;;;;;;5073394;28;20485;-68
2022/08/25 04:18:12;;;;;;;60.70;4.63;;;;;;;;;;5073275;28;20444;-68
2022/08/25 04:20:40;;;;;;;60.80;4.43;;;;;;;;;;5072876;28;20459;-68
2022/08/25 04:23:08;;;;;;;62.13;5.67;;;;;;;;;;5073086;28;21001;-68
2022/08/25 04:25:35;;;;;;;60.43;4.83;;;;;;;;;;5072963;28;21004;-68
2022/08/25 04:28:04;;;;;;;59.90;4.23;;;;;;;;;;5073169;28;20448;-67
2022/08/25 04:30:31;;;;;;;60.70;4.20;;;;;;;;;;5073014;28;20803;-67
2022/08/25 04:32:58;;;;;;;60.67;4.40;;;;;;;;;;5072878;28;20479;-67
2022/08/25 04:35:25;;;;;;;62.27;5.17;;;;;;;;;;5073192;28;20497;-68
2022/08/25 04:37:52;;;;;;;61.77;4.57;;;;;;;;;;5072689;28;20940;-68
2022/08/25 04:40:20;;;;;;;60.97;5.10;;;;;;;;;;5072593;28;20536;-68
2022/08/25 04:42:47;;;;;;;60.37;4.53;;;;;;;;;;5072785;28;20463;-67
2022/08/25 04:45:15;;;;;;;60.30;4.30;;;;;;;;;;5072825;28;20816;-68
2022/08/25 04:47:42;;;;;;;59.80;4.50;;;;;;;;;;5072533;28;20451;-67
2022/08/25 04:50:10;;;;;;;61.30;4.53;;;;;;;;;;5072362;28;20953;-68
2022/08/25 04:52:37;;;;;;;62.30;4.97;;;;;;;;;;5072591;28;20469;-67
2022/08/25 04:55:04;;;;;;;60.33;5.03;;;;;;;;;;5072544;28;20459;-68
2022/08/25 04:57:31;;;;;;;61.17;4.67;;;;;;;;;;5072537;28;20458;-67
2022/08/25 04:59:59;;;;;;;60.70;4.80;;;;;;;;;;5072073;28;20452;-68
2022/08/25 05:02:27;;;;;;;60.20;4.90;;;;;;;;;;5072345;28;20551;-68
2022/08/25 05:04:55;;;;;;;61.77;5.03;;;;;;;;;;5072533;28;20447;-68
2022/08/25 05:07:22;;;;;;;60.07;4.40;;;;;;;;;;5072432;28;20491;-66
2022/08/25 05:09:49;;;;;;;61.43;4.90;;;;;;;;;;5072134;28;20463;-66
2022/08/25 05:12:16;;;;;;;61.03;5.10;;;;;;;;;;5072641;28;20977;-67
2022/08/25 05:14:43;;;;;;;63.10;4.67;;;;;;;;;;5072283;28;20444;-66
2022/08/25 05:17:10;;;;;;;60.20;4.10;;;;;;;;;;5072144;28;20447;-67
2022/08/25 05:19:39;;;;;;;59.60;3.93;;;;;;;;;;5072056;28;20456;-68
2022/08/25 05:22:06;;;;;;;61.00;5.30;;;;;;;;;;5072295;28;20469;-68
2022/08/25 05:24:33;;;;;;;61.70;4.90;;;;;;;;;;5072251;28;20879;-66
2022/08/25 05:27:02;;;;;;;61.10;4.60;;;;;;;;;;5072524;28;21049;-66
2022/08/25 05:29:29;;;;;;;60.80;4.53;;;;;;;;;;5071661;28;20932;-67
2022/08/25 05:31:56;;;;;;;61.60;4.70;;;;;;;;;;5072160;28;20571;-67
2022/08/25 05:34:24;;;;;;;60.73;4.53;;;;;;;;;;5072286;28;20449;-68
2022/08/25 05:36:53;;;;;;;61.00;4.50;;;;;;;;;;5072063;28;20486;-67
2022/08/25 05:39:20;;;;;;;60.43;4.73;;;;;;;;;;5071740;28;20507;-67
2022/08/25 05:41:47;;;;;;;60.47;4.40;;;;;;;;;;5071996;28;20833;-67
2022/08/25 05:44:16;;;;;;;61.20;4.57;;;;;;;;;;5072178;28;20549;-67
2022/08/25 05:46:43;;;;;;;59.73;4.50;;;;;;;;;;5072307;28;20485;-67
2022/08/25 05:49:10;;;;;;;60.90;5.40;;;;;;;;;;5071696;28;20452;-67
2022/08/25 05:51:37;;;;;;;59.83;4.27;;;;;;;;;;5071836;28;20450;-68
2022/08/25 05:54:06;;;;;;;60.83;5.23;;;;;;;;;;5072312;28;20447;-67
2022/08/25 05:56:33;;;;;;;61.03;4.83;;;;;;;;;;5071617;28;20450;-67
2022/08/25 05:59:00;;;;;;;61.10;4.03;;;;;;;;;;5071665;28;20446;-67
2022/08/25 06:04:13;;;;;;;60.40;4.57;;;;;;;;;;5072054;28;20496;-67
2022/08/25 06:06:41;;;;;;;59.70;4.50;;;;;;;;;;5072405;28;20482;-67
2022/08/25 06:09:09;;;;;;;60.33;3.87;;;;;;;;;;5071463;28;20456;-68
2022/08/25 06:11:38;;;;;;;59.70;4.57;;;;;;;;;;5072334;28;20812;-67
2022/08/25 06:14:06;;;;;;;60.87;4.87;;;;;;;;;;5072256;28;20462;-67
2022/08/25 06:16:33;;;;;;;61.40;4.80;;;;;;;;;;5072104;28;20873;-67
2022/08/25 06:19:00;;;;;;;59.33;3.90;;;;;;;;;;5072068;28;20500;-67
2022/08/25 06:21:28;;;;;;;60.00;5.07;;;;;;;;;;5071947;28;20449;-67
2022/08/25 06:23:55;;;;;;;60.33;4.40;;;;;;;;;;5072546;28;20454;-67
2022/08/25 06:26:23;;;;;;;60.90;4.90;;;;;;;;;;5072166;28;20898;-67
2022/08/25 06:28:51;;;;;;;60.57;4.60;;;;;;;;;;5071710;28;20452;-68
2022/08/25 06:31:18;;;;;;;60.23;4.67;;;;;;;;;;5072073;28;20449;-68
2022/08/25 06:33:45;;;;;;;62.23;4.87;;;;;;;;;;5071754;28;20458;-68
2022/08/25 06:36:13;;;;;;;59.47;4.30;;;;;;;;;;5072041;28;20961;-68
2022/08/25 06:38:40;;;;;;;60.27;4.93;;;;;;;;;;5072083;28;20450;-68
2022/08/25 06:41:09;;;;;;;59.67;4.30;;;;;;;;;;5072289;28;20448;-68
2022/08/25 06:43:38;;;;;;;60.10;4.77;;;;;;;;;;5072491;28;20481;-67
2022/08/25 06:46:09;;;;;;;61.67;6.20;;;;;;;;;;5072465;28;20526;-68
2022/08/25 06:48:36;;;;;;;59.90;4.40;;;;;;;;;;5072539;28;20556;-67
2022/08/25 06:51:05;;;;;;;61.50;5.17;;;;;;;;;;5072738;28;21136;-67
2022/08/25 06:53:32;;;;;;;61.40;4.77;;;;;;;;;;5073954;28;20463;-67
2022/08/25 06:56:00;;;;;;;60.00;4.90;;;;;;;;;;5075830;28;20939;-67
2022/08/25 06:58:27;;;;;;;60.80;4.90;;;;;;;;;;5076916;28;21008;-67
2022/08/25 07:00:55;;;;;;;59.87;4.23;;;;;;;;;;5076311;28;20451;-67
2022/08/25 07:03:22;;;;;;;60.83;5.03;;;;;;;;;;5075288;28;20473;-67
2022/08/25 07:05:53;;;;;;;60.37;4.87;;;;;;;;;;5076264;28;20450;-68
2022/08/25 07:08:20;;;;;;;61.80;4.93;;;;;;;;;;5076004;28;20887;-67
2022/08/25 07:10:47;;;;;;;63.40;5.00;;;;;;;;;;5076000;28;20530;-68
2022/08/25 07:13:14;;;;;;;60.50;4.30;;;;;;;;;;5076660;28;20551;-68
2022/08/25 07:15:42;;;;;;;59.40;4.30;;;;;;;;;;5076199;28;20550;-69
2022/08/25 07:18:11;;;;;;;61.47;5.50;;;;;;;;;;5077388;28;20520;-68
2022/08/25 07:20:38;;;;;;;60.97;4.80;;;;;;;;;;5075765;28;20447;-68
2022/08/25 07:23:05;;;;;;;60.27;4.60;;;;;;;;;;5076603;28;20494;-68
2022/08/25 07:25:33;;;;;;;62.57;5.87;;;;;;;;;;5076418;28;20450;-68
2022/08/25 07:28:00;;;;;;;59.37;4.20;;;;;;;;;;5076008;28;20483;-69
2022/08/25 07:30:27;;;;;;;61.03;4.90;;;;;;;;;;5075144;28;20444;-68
2022/08/25 07:32:55;;;;;;;61.60;4.80;;;;;;;;;;5076103;28;20479;-68
2022/08/25 07:35:24;;;;;;;59.77;4.73;;;;;;;;;;5076382;28;20451;-69
2022/08/25 07:37:52;;;;;;;59.97;4.30;;;;;;;;;;5076537;28;20582;-68
2022/08/25 07:40:21;;;;;;;61.90;5.50;;;;;;;;;;5076294;28;20447;-68
2022/08/25 07:42:49;;;;;;;60.07;4.37;;;;;;;;;;5076711;28;20829;-66
2022/08/25 07:45:16;;;;;;;60.17;5.17;;;;;;;;;;5076869;28;21027;-66
2022/08/25 07:47:44;;;;;;;61.20;4.67;;;;;;;;;;5077638;28;20490;-68
2022/08/25 07:50:12;;;;;;;61.67;5.03;;;;;;;;;;5076215;28;20542;-69
2022/08/25 07:52:40;;;;;;;61.97;4.27;;;;;;;;;;5076902;28;20829;-69
2022/08/25 07:55:08;;;;;;;59.90;4.33;;;;;;;;;;5076308;28;20443;-66
2022/08/25 07:57:35;;;;;;;60.13;4.20;;;;;;;;;;5076014;28;20469;-68
2022/08/25 08:00:03;;;;;;;60.20;5.27;;;;;;;;;;5076961;28;20450;-68
2022/08/25 08:02:30;;;;;;;60.87;4.40;;;;;;;;;;5076965;28;20880;-68
2022/08/25 08:04:57;;;;;;;61.00;4.23;;;;;;;;;;5076498;28;20435;-67
2022/08/25 08:07:25;;;;;;;59.87;4.03;;;;;;;;;;5077051;28;20872;-66
2022/08/25 08:09:54;;;;;;;62.60;4.43;;;;;;;;;;5076630;28;20966;-66
2022/08/25 08:12:22;;;;;;;58.90;3.93;;;;;;;;;;5076886;28;20476;-65
2022/08/25 08:14:49;;;;;;;59.40;3.60;;;;;;;;;;5076020;28;20501;-67
2022/08/25 08:17:16;;;;;;;59.87;4.10;;;;;;;;;;5077495;28;20444;-67
2022/08/25 08:19:43;;;;;;;60.33;3.97;;;;;;;;;;5075735;28;20538;-67
2022/08/25 08:22:13;;;;;;;60.43;4.40;;;;;;;;;;5076664;28;20471;-67
2022/08/25 08:24:43;;;;;;;59.37;4.37;;;;;;;;;;5076834;28;20502;-68
2022/08/25 08:27:12;;;;;;;59.80;4.27;;;;;;;;;;5077444;28;20493;-66
2022/08/25 08:29:40;;;;;;;61.43;4.80;;;;;;;;;;5075990;28;21056;-68
2022/08/25 08:32:08;;;;;;;60.03;4.90;;;;;;;;;;5075975;28;20481;-68
2022/08/25 08:34:35;;;;;;;60.10;4.10;;;;;;;;;;5076552;28;20534;-67
2022/08/25 08:37:03;;;;;;;60.60;4.67;;;;;;;;;;5078059;28;20537;-67
2022/08/25 08:39:30;;;;;;;60.27;4.53;;;;;;;;;;5075302;28;20443;-67
2022/08/25 08:42:18;;;;;;;60.30;4.00;;;;;;;;;;5075648;28;20478;-67
2022/08/25 08:44:52;;;;;;;59.90;4.53;;;;;;;;;;5076508;28;20486;-67
2022/08/25 08:47:26;;;;;;;59.80;4.20;;;;;;;;;;5076655;28;20574;-67
2022/08/25 08:50:00;;;;;;;59.07;4.20;;;;;;;;;;5075418;28;21029;-67
2022/08/25 08:52:33;;;;;;;59.50;3.93;;;;;;;;;;5076225;28;20893;-67
2022/08/25 08:55:03;;;;;;;60.20;4.53;;;;;;;;;;5076551;28;20450;-68
2022/08/25 08:57:31;;;;;;;60.17;4.07;;;;;;;;;;5075242;28;20440;-68
2022/08/25 09:00:01;;;;;;;60.90;4.10;;;;;;;;;;5075250;28;20443;-68
2022/08/25 09:02:32;;;;;;;60.17;3.93;;;;;;;;;;5074468;28;20525;-68
2022/08/25 09:05:01;;;;;;;60.17;3.70;;;;;;;;;;5073801;28;20497;-68
2022/08/25 09:07:31;;;;;;;59.30;3.80;;;;;;;;;;5073680;28;20489;-67
2022/08/25 09:09:58;;;;;;;61.27;3.87;;;;;;;;;;5075906;28;20511;-67
2022/08/25 09:12:30;;;;;;;59.27;4.20;;;;;;;;;;5076139;28;20467;-67
2022/08/25 09:15:03;;;;;;;59.00;4.00;;;;;;;;;;5075469;28;20454;-66
2022/08/25 09:17:41;;;;;;;60.10;4.27;;;;;;;;;;5073648;28;20529;-67
2022/08/25 09:20:15;;;;;;;60.43;5.50;;;;;;;;;;5073132;28;20451;-67
2022/08/25 09:22:49;;;;;;;59.50;3.80;;;;;;;;;;5074780;28;20469;-68
2022/08/25 09:25:20;;;;;;;59.20;3.70;;;;;;;;;;5074974;28;20529;-67
2022/08/25 09:27:50;;;;;;;61.07;4.27;;;;;;;;;;5073619;28;20493;-66
2022/08/25 09:30:19;;;;;;;59.97;4.10;;;;;;;;;;5072812;28;20443;-68
2022/08/25 09:32:48;;;;;;;59.50;3.60;;;;;;;;;;5072305;28;20502;-68
2022/08/25 09:35:18;;;;;;;59.87;3.60;;;;;;;;;;5072284;28;20870;-68
2022/08/25 09:37:55;;;;;;;59.90;4.07;;;;;;;;;;5072167;28;20447;-67
2022/08/25 09:40:24;;;;;;;60.10;4.50;;;;;;;;;;5071933;28;20451;-68
2022/08/25 09:42:53;;;;;;;60.00;4.13;;;;;;;;;;5072059;28;20505;-68
2022/08/25 09:45:32;;;;;;;58.97;3.43;;;;;;;;;;5072453;28;20453;-68
2022/08/25 09:48:00;;;;;;;60.97;4.20;;;;;;;;;;5072686;28;20524;-68
2022/08/25 09:50:31;;;;;;;58.80;3.57;;;;;;;;;;5072280;28;20543;-68
2022/08/25 09:53:11;;;;;;;60.77;3.87;;;;;;;;;;5072025;28;20464;-68
2022/08/25 09:55:39;;;;;;;58.67;3.13;;;;;;;;;;5072561;28;20447;-68
2022/08/25 09:58:14;;;;;;;60.70;3.60;;;;;;;;;;5075120;28;20445;-68
2022/08/25 10:00:43;;;;;;;59.60;4.00;;;;;;;;;;5072941;28;20529;-68
2022/08/25 10:03:11;;;;;;;58.23;3.20;;;;;;;;;;5073336;28;20574;-68
2022/08/25 10:05:41;;;;;;;59.90;3.83;;;;;;;;;;5073093;28;20450;-68
2022/08/25 10:08:12;;;;;;;62.70;3.53;;;;;;;;;;5075022;28;20479;-68
2022/08/25 10:10:44;;;;;;;58.97;3.40;;;;;;;;;;5076057;28;20458;-68
2022/08/25 10:13:13;;;;;;;58.40;3.40;;;;;;;;;;5075681;28;20473;-68
2022/08/25 10:15:41;;;;;;;58.10;2.97;;;;;;;;;;5076715;28;20439;-68
2022/08/25 10:18:20;;;;;;;58.33;3.07;;;;;;;;;;5075518;28;20443;-69
2022/08/25 10:21:01;;;;;;;57.87;3.00;;;;;;;;;;5075591;28;20447;-68
2022/08/25 10:23:28;;;;;;;58.43;3.27;;;;;;;;;;5076790;28;20501;-69
2022/08/25 10:25:57;;;;;;;57.90;2.73;;;;;;;;;;5075941;28;20519;-69
2022/08/25 10:28:27;;;;;;;60.40;3.53;;;;;;;;;;5079341;28;20565;-69
2022/08/25 10:30:58;;;;;;;57.93;2.80;;;;;;;;;;5078005;28;20449;-67
2022/08/25 10:33:33;;;;;;;57.80;3.43;;;;;;;;;;5077289;28;20562;-67
2022/08/25 10:36:04;;;;;;;57.80;3.17;;;;;;;;;;5077627;28;20526;-68
2022/08/25 10:38:36;;;;;;;58.27;2.97;;;;;;;;;;5077599;28;20447;-67
2022/08/25 10:41:09;;;;;;;60.20;3.57;;;;;;;;;;5077160;28;20454;-68
2022/08/25 10:43:41;;;;;;;58.57;3.50;;;;;;;;;;5075986;28;20475;-68
2022/08/25 10:46:15;;;;;;;57.97;3.10;;;;;;;;;;5075651;28;20451;-68
2022/08/25 10:48:52;;;;;;;57.10;2.30;;;;;;;;;;5075285;28;20493;-68
2022/08/25 10:51:40;;;;;;;57.20;3.10;;;;;;;;;;5075341;28;20449;-67
2022/08/25 10:54:13;;;;;;;58.13;3.30;;;;;;;;;;5070102;28;20831;-69
2022/08/25 10:56:41;;;;;;;58.80;3.10;;;;;;;;;;5075508;28;20534;-69
2022/08/25 10:59:21;;;;;;;56.87;2.40;;;;;;;;;;5074801;28;20442;-69
2022/08/25 11:01:53;;;;;;;57.27;2.90;;;;;;;;;;5075347;28;20459;-69
2022/08/25 11:04:24;;;;;;;57.30;2.90;;;;;;;;;;5075827;28;20445;-69
2022/08/25 11:06:55;;;;;;;57.30;2.83;;;;;;;;;;5075136;28;20453;-67
2022/08/25 11:09:25;;;;;;;57.57;3.40;;;;;;;;;;5074899;28;20486;-68
2022/08/25 11:11:55;;;;;;;57.37;3.47;;;;;;;;;;5075082;28;20513;-68
2022/08/25 11:14:25;;;;;;;57.27;3.30;;;;;;;;;;5076341;28;20459;-68
2022/08/25 11:16:55;;;;;;;57.30;2.70;;;;;;;;;;5076787;28;20447;-69
2022/08/25 11:19:26;;;;;;;56.97;2.70;;;;;;;;;;5074374;28;20454;-68
2022/08/25 11:21:56;;;;;;;57.47;3.23;;;;;;;;;;5074783;28;20889;-68
2022/08/25 11:24:41;;;;;;;57.67;3.20;;;;;;;;;;5075345;28;20443;-69
2022/08/25 11:27:12;;;;;;;59.77;2.60;;;;;;;;;;5079214;28;20435;-68
2022/08/25 11:29:40;;;;;;;56.77;2.63;;;;;;;;;;5075205;28;20453;-68
2022/08/25 11:32:08;;;;;;;57.37;3.07;;;;;;;;;;5075487;28;20490;-69
2022/08/25 11:34:37;;;;;;;57.63;2.70;;;;;;;;;;5074748;28;20446;-68
2022/08/25 11:37:08;;;;;;;57.80;3.40;;;;;;;;;;5075651;28;20830;-67
2022/08/25 11:39:45;;;;;;;57.87;2.80;;;;;;;;;;5073777;28;20857;-68
2022/08/25 11:42:18;;;;;;;56.87;2.80;;;;;;;;;;5075133;28;20473;-68
2022/08/25 11:44:49;;;;;;;57.47;3.13;;;;;;;;;;5075437;28;20888;-68
2022/08/25 11:47:29;;;;;;;57.57;2.90;;;;;;;;;;5075885;28;20550;-69
2022/08/25 11:50:00;;;;;;;57.57;3.10;;;;;;;;;;5075288;28;20457;-68
2022/08/25 11:52:49;;;;;;;57.60;3.07;;;;;;;;;;5074482;28;20509;-68
2022/08/25 11:55:17;;;;;;;57.60;3.10;;;;;;;;;;5078973;28;20448;-68
2022/08/25 11:57:46;;;;;;;57.50;2.97;;;;;;;;;;5075218;28;20444;-68
2022/08/25 12:00:33;;;;;;;57.30;3.00;;;;;;;;;;5075813;28;20870;-68
2022/08/25 12:03:22;;;;;;;57.70;2.73;;;;;;;;;;5078116;28;20551;-68
2022/08/25 12:05:52;;;;;;;57.90;3.20;;;;;;;;;;5075793;28;20479;-67
2022/08/25 12:08:48;;;;;;;57.47;3.47;;;;;;;;;;5077398;28;20570;-68
2022/08/25 12:11:39;;;;;;;56.90;2.73;;;;;;;;;;5077241;28;20447;-66
2022/08/25 12:14:12;;;;;;;57.07;2.90;;;;;;;;;;5075990;28;20519;-68
2022/08/25 12:16:42;;;;;;;57.90;2.70;;;;;;;;;;5075097;28;20822;-69
2022/08/25 12:19:33;;;;;;;56.90;2.90;;;;;;;;;;5073223;28;21002;-68
2022/08/25 12:22:15;;;;;;;57.10;2.80;;;;;;;;;;5060247;28;21050;-68
2022/08/25 12:24:51;;;;;;;57.90;2.70;;;;;;;;;;5077625;28;20486;-68
2022/08/25 12:27:23;;;;;;;57.20;2.77;;;;;;;;;;5077953;28;20455;-67
2022/08/25 12:29:52;;;;;;;58.47;2.90;;;;;;;;;;5073376;28;20483;-67
2022/08/25 12:32:26;;;;;;;57.30;3.27;;;;;;;;;;5072679;28;20479;-69
2022/08/25 12:35:05;;;;;;;57.47;2.70;;;;;;;;;;5073210;28;20459;-68
2022/08/25 12:37:34;;;;;;;58.20;2.97;;;;;;;;;;5073020;28;20943;-68
2022/08/25 12:40:04;;;;;;;57.70;2.80;;;;;;;;;;5072674;28;20546;-68
2022/08/25 12:42:33;;;;;;;57.20;2.80;;;;;;;;;;5072926;28;20468;-68
2022/08/25 12:45:13;;;;;;;57.47;2.90;;;;;;;;;;5072706;28;20508;-68
2022/08/25 12:47:41;;;;;;;56.70;2.50;;;;;;;;;;5073794;28;20451;-68
2022/08/25 12:50:32;;;;;;;57.00;3.13;;;;;;;;;;5072589;28;20448;-68
2022/08/25 12:53:07;;;;;;;57.00;2.67;;;;;;;;;;5075911;28;20474;-68
2022/08/25 12:55:36;;;;;;;56.70;2.57;;;;;;;;;;5076585;28;20442;-69
2022/08/25 12:58:05;;;;;;;58.20;3.23;;;;;;;;;;5077015;28;20935;-68
2022/08/25 13:00:35;;;;;;;56.90;2.70;;;;;;;;;;5074296;28;20451;-68
2022/08/25 13:03:27;;;;;;;57.23;2.50;;;;;;;;;;5074434;28;20479;-68
2022/08/25 13:06:09;;;;;;;57.23;2.83;;;;;;;;;;5072424;28;20505;-68
2022/08/25 13:08:54;;;;;;;56.87;2.37;;;;;;;;;;5072572;28;20570;-69
2022/08/25 13:11:25;;;;;;;57.00;2.50;;;;;;;;;;5042339;28;20447;-67
2022/08/25 13:13:56;;;;;;;57.30;2.90;;;;;;;;;;5073509;28;20454;-68
2022/08/25 13:16:25;;;;;;;56.77;2.60;;;;;;;;;;5074349;28;20816;-68
2022/08/25 13:18:56;;;;;;;56.87;2.57;;;;;;;;;;5072938;28;20447;-68
2022/08/25 13:21:25;;;;;;;57.67;2.63;;;;;;;;;;5074238;28;20454;-68
2022/08/25 13:23:53;;;;;;;57.10;2.30;;;;;;;;;;5076084;28;20947;-68
2022/08/25 13:26:24;;;;;;;56.97;2.80;;;;;;;;;;5073887;28;20453;-68
2022/08/25 13:28:54;;;;;;;57.17;2.60;;;;;;;;;;5072654;28;20479;-68
2022/08/25 13:31:26;;;;;;;56.47;2.30;;;;;;;;;;5077190;28;20943;-68
2022/08/25 13:33:54;;;;;;;56.87;2.50;;;;;;;;;;5075178;28;20459;-68
2022/08/25 13:39:14;;;;;;;56.77;2.30;;;;;;;;;;5072005;28;20872;-68
2022/08/25 13:41:46;;;;;;;56.87;2.50;;;;;;;;;;5072709;28;20482;-68
2022/08/25 13:44:14;;;;;;;56.63;2.50;;;;;;;;;;5075851;28;21019;-68
2022/08/25 13:46:41;;;;;;;57.30;3.00;;;;;;;;;;5072745;28;20447;-68
2022/08/25 13:49:09;;;;;;;57.83;2.60;;;;;;;;;;5072502;28;20487;-68
2022/08/25 13:51:37;;;;;;;59.00;2.77;;;;;;;;;;5073492;28;20448;-68
2022/08/25 13:54:07;;;;;;;58.03;2.77;;;;;;;;;;5074077;28;20447;-68
2022/08/25 13:56:35;;;;;;;57.37;3.23;;;;;;;;;;5076377;28;20451;-67
2022/08/25 13:59:05;;;;;;;57.37;2.77;;;;;;;;;;5075676;28;20822;-68
2022/08/25 14:01:34;;;;;;;57.47;3.03;;;;;;;;;;5072986;28;20452;-67
2022/08/25 14:04:16;;;;;;;56.70;2.80;;;;;;;;;;5075887;28;20936;-68
2022/08/25 14:06:43;;;;;;;57.10;2.90;;;;;;;;;;5078255;28;20439;-68
2022/08/25 14:09:15;;;;;;;57.07;2.83;;;;;;;;;;5075635;28;20577;-68
2022/08/25 14:11:43;;;;;;;57.70;2.50;;;;;;;;;;5076554;28;20800;-67
2022/08/25 14:14:13;;;;;;;56.80;2.60;;;;;;;;;;5077238;28;20487;-68
2022/08/25 14:16:46;;;;;;;57.10;2.60;;;;;;;;;;5079317;28;20448;-67
2022/08/25 14:19:15;;;;;;;57.20;2.83;;;;;;;;;;5076579;28;20443;-69
2022/08/25 14:21:42;;;;;;;57.07;2.67;;;;;;;;;;5077459;28;20843;-68
2022/08/25 14:24:09;;;;;;;57.10;2.93;;;;;;;;;;5076392;28;20452;-69
2022/08/25 14:26:37;;;;;;;57.20;2.60;;;;;;;;;;5075849;28;20447;-67
2022/08/25 14:29:04;;;;;;;56.93;3.07;;;;;;;;;;5075236;28;20479;-68
2022/08/25 14:31:34;;;;;;;56.80;2.73;;;;;;;;;;5075583;28;20439;-68
2022/08/25 14:34:03;;;;;;;57.97;2.83;;;;;;;;;;5079465;28;20470;-68
2022/08/25 14:36:31;;;;;;;57.27;2.83;;;;;;;;;;5078121;28;20452;-68
2022/08/25 14:38:58;;;;;;;56.80;2.33;;;;;;;;;;5076656;28;20447;-68
2022/08/25 14:41:26;;;;;;;57.57;2.53;;;;;;;;;;5077864;28;20451;-68
2022/08/25 14:43:53;;;;;;;57.80;3.50;;;;;;;;;;5075570;28;20447;-67
2022/08/25 14:46:21;;;;;;;57.47;2.67;;;;;;;;;;5075421;28;20530;-68
2022/08/25 14:48:53;;;;;;;57.57;2.50;;;;;;;;;;5076553;28;20487;-68
2022/08/25 14:51:20;;;;;;;57.27;3.07;;;;;;;;;;5077767;28;20501;-68
2022/08/25 14:53:47;;;;;;;57.77;2.77;;;;;;;;;;5076546;28;20457;-68